createdAt,value
2023-01-01T00:00:52.178Z,84.71
2023-01-01T00:01:52.112Z,84.71
2023-01-01T00:02:52.100Z,84.71
2023-01-01T00:03:52.234Z,84.71
2023-01-01T00:04:52.111Z,84.71
2023-01-01T00:05:52.115Z,84.71
2023-01-01T00:06:52.119Z,84.71
2023-01-01T00:07:52.124Z,84.71
2023-01-01T00:08:52.102Z,84.71
2023-01-01T00:09:52.114Z,84.71
2023-01-01T00:10:52.115Z,84.71
2023-01-01T00:11:52.118Z,84.71
2023-01-01T00:12:52.134Z,84.71
2023-01-01T00:13:52.117Z,84.71
2023-01-01T00:14:52.120Z,84.71
2023-01-01T00:15:52.109Z,84.71
2023-01-01T00:16:52.145Z,84.71
2023-01-01T00:17:52.128Z,84.71
2023-01-01T00:18:52.128Z,84.71
2023-01-01T00:19:52.123Z,84.71
2023-01-01T00:20:52.116Z,84.71
2023-01-01T00:21:52.129Z,84.71
2023-01-01T00:22:54.831Z,84.71
2023-01-01T00:23:52.128Z,84.71
2023-01-01T00:24:52.130Z,84.71
2023-01-01T00:25:52.131Z,84.71
2023-01-01T00:26:52.132Z,84.71
2023-01-01T00:27:52.214Z,84.71
2023-01-01T00:28:52.166Z,84.71
2023-01-01T00:29:52.127Z,84.71
2023-01-01T00:30:52.133Z,84.71
2023-01-01T00:31:52.180Z,84.71
2023-01-01T00:32:54.295Z,84.71
2023-01-01T00:33:52.147Z,84.71
2023-01-01T00:34:52.179Z,84.71
2023-01-01T00:35:52.136Z,84.71
2023-01-01T00:36:52.141Z,84.71
2023-01-01T00:37:52.137Z,84.71
2023-01-01T00:38:52.141Z,84.71
2023-01-01T00:39:52.148Z,84.71
2023-01-01T00:40:52.137Z,84.71
2023-01-01T00:41:52.145Z,84.71
2023-01-01T00:42:52.150Z,84.71
2023-01-01T00:43:52.165Z,84.71
2023-01-01T00:44:52.183Z,84.71
2023-01-01T00:45:52.204Z,84.71
2023-01-01T00:46:52.150Z,84.71
2023-01-01T00:47:52.209Z,84.71
2023-01-01T00:48:52.156Z,84.71
2023-01-01T00:49:52.168Z,84.71
2023-01-01T00:50:52.152Z,84.71
2023-01-01T00:51:52.174Z,84.71
2023-01-01T00:52:52.155Z,84.71
2023-01-01T00:53:52.174Z,84.71
2023-01-01T00:54:52.162Z,84.71
2023-01-01T00:55:52.192Z,84.71
2023-01-01T00:56:52.160Z,84.71
2023-01-01T00:57:52.181Z,84.71
2023-01-01T00:59:00.689Z,84.71
2023-01-01T00:59:52.168Z,84.71
2023-01-01T01:00:52.291Z,84.71
2023-01-01T01:01:52.254Z,84.71
2023-01-01T01:02:52.183Z,84.71
2023-01-01T01:03:52.184Z,84.71
2023-01-01T01:04:52.166Z,84.71
2023-01-01T01:05:52.172Z,84.71
2023-01-01T01:06:52.183Z,84.71
2023-01-01T01:07:52.174Z,84.71
2023-01-01T01:08:52.188Z,84.71
2023-01-01T01:09:52.177Z,84.71
2023-01-01T01:10:52.196Z,84.71
2023-01-01T01:11:52.179Z,84.71
2023-01-01T01:12:52.178Z,84.71
2023-01-01T01:13:52.213Z,84.71
2023-01-01T01:14:52.199Z,84.71
2023-01-01T01:15:56.252Z,84.71
2023-01-01T01:16:52.266Z,84.71
2023-01-01T01:17:52.190Z,84.71
2023-01-01T01:18:52.180Z,84.71
2023-01-01T01:19:52.182Z,84.71
2023-01-01T01:20:52.175Z,84.71
2023-01-01T01:21:52.185Z,84.71
2023-01-01T01:22:52.195Z,84.71
2023-01-01T01:23:52.182Z,84.71
2023-01-01T01:24:52.184Z,84.71
2023-01-01T01:25:52.189Z,84.71
2023-01-01T01:26:52.197Z,84.71
2023-01-01T01:27:52.194Z,84.71
2023-01-01T01:28:52.189Z,84.71
2023-01-01T01:29:52.251Z,84.71
2023-01-01T01:30:52.252Z,84.71
2023-01-01T01:31:52.199Z,84.71
2023-01-01T01:32:52.218Z,84.71
2023-01-01T01:33:52.216Z,84.71
2023-01-01T01:34:52.201Z,84.71
2023-01-01T01:35:52.211Z,84.71
2023-01-01T01:36:52.196Z,84.71
2023-01-01T01:37:52.193Z,84.71
2023-01-01T01:38:52.209Z,84.71
2023-01-01T01:39:54.073Z,84.71
2023-01-01T01:40:52.200Z,84.71
2023-01-01T01:41:52.220Z,84.71
2023-01-01T01:42:52.197Z,84.71
2023-01-01T01:43:52.209Z,84.71
2023-01-01T01:44:52.783Z,84.71
2023-01-01T01:45:52.209Z,84.71
2023-01-01T01:46:52.198Z,84.71
2023-01-01T01:47:52.210Z,84.71
2023-01-01T01:48:52.225Z,84.71
2023-01-01T01:49:52.208Z,84.71
2023-01-01T01:50:52.199Z,84.71
2023-01-01T01:51:52.215Z,84.71
2023-01-01T01:52:52.214Z,84.71
2023-01-01T01:53:52.219Z,84.71
2023-01-01T01:54:52.223Z,84.71
2023-01-01T01:55:52.226Z,84.71
2023-01-01T01:56:52.222Z,84.71
2023-01-01T01:57:52.229Z,84.71
2023-01-01T01:58:52.219Z,84.71
2023-01-01T01:59:52.224Z,84.71
2023-01-01T02:00:52.220Z,84.71
2023-01-01T02:01:52.294Z,84.71
2023-01-01T02:02:52.270Z,84.71
2023-01-01T02:03:52.226Z,84.71
2023-01-01T02:04:52.248Z,84.71
2023-01-01T02:05:52.214Z,84.71
2023-01-01T02:06:52.223Z,84.71
2023-01-01T02:07:52.217Z,84.71
2023-01-01T02:08:52.246Z,84.71
2023-01-01T02:09:52.221Z,84.71
2023-01-01T02:10:52.226Z,84.71
2023-01-01T02:11:52.220Z,84.71
2023-01-01T02:12:52.225Z,84.71
2023-01-01T02:13:52.226Z,84.71
2023-01-01T02:14:52.226Z,84.71
2023-01-01T02:15:52.262Z,84.71
2023-01-01T02:16:52.222Z,84.71
2023-01-01T02:17:52.216Z,84.71
2023-01-01T02:18:52.244Z,84.71
2023-01-01T02:19:52.224Z,84.71
2023-01-01T02:20:52.246Z,84.71
2023-01-01T02:21:52.228Z,84.71
2023-01-01T02:22:52.233Z,84.71
2023-01-01T02:23:52.236Z,84.71
2023-01-01T02:24:52.219Z,84.71
2023-01-01T02:25:52.232Z,84.71
2023-01-01T02:26:52.220Z,84.71
2023-01-01T02:27:52.230Z,84.71
2023-01-01T02:28:52.223Z,84.71
2023-01-01T02:29:52.238Z,84.71
2023-01-01T02:30:52.274Z,84.71
2023-01-01T02:31:52.242Z,84.71
2023-01-01T02:32:52.246Z,84.71
2023-01-01T02:33:52.234Z,84.71
2023-01-01T02:34:52.252Z,84.71
2023-01-01T02:35:52.236Z,84.71
2023-01-01T02:36:52.247Z,84.71
2023-01-01T02:37:52.222Z,84.71
2023-01-01T02:38:52.232Z,84.71
2023-01-01T02:39:52.227Z,84.71
2023-01-01T02:40:52.224Z,84.71
2023-01-01T02:41:52.235Z,84.71
2023-01-01T02:42:52.248Z,84.71
2023-01-01T02:43:52.245Z,84.71
2023-01-01T02:44:52.240Z,84.71
2023-01-01T02:45:52.313Z,84.71
2023-01-01T02:46:52.245Z,84.71
2023-01-01T02:47:52.248Z,84.71
2023-01-01T02:48:52.241Z,84.71
2023-01-01T02:49:52.251Z,84.71
2023-01-01T02:50:52.252Z,84.71
2023-01-01T02:51:52.247Z,84.71
2023-01-01T02:52:52.273Z,84.71
2023-01-01T02:53:52.240Z,84.71
2023-01-01T02:54:52.260Z,84.71
2023-01-01T02:55:52.253Z,84.71
2023-01-01T02:56:52.253Z,84.71
2023-01-01T02:57:52.271Z,84.71
2023-01-01T02:58:52.253Z,84.71
2023-01-01T02:59:52.241Z,84.71
2023-01-01T03:00:52.270Z,84.71
2023-01-01T03:01:52.299Z,84.71
2023-01-01T03:02:52.426Z,84.71
2023-01-01T03:03:52.248Z,84.71
2023-01-01T03:04:52.252Z,84.71
2023-01-01T03:05:52.259Z,84.71
2023-01-01T03:06:52.259Z,84.71
2023-01-01T03:07:52.254Z,84.71
2023-01-01T03:08:52.292Z,84.71
2023-01-01T03:09:52.259Z,84.71
2023-01-01T03:10:52.258Z,84.71
2023-01-01T03:11:52.265Z,84.71
2023-01-01T03:12:52.273Z,84.71
2023-01-01T03:13:52.278Z,84.71
2023-01-01T03:14:52.263Z,84.71
2023-01-01T03:15:52.300Z,84.71
2023-01-01T03:16:52.256Z,84.71
2023-01-01T03:17:52.266Z,84.71
2023-01-01T03:18:52.267Z,84.71
2023-01-01T03:19:52.267Z,84.71
2023-01-01T03:20:52.266Z,84.71
2023-01-01T03:21:52.265Z,84.71
2023-01-01T03:22:52.280Z,84.71
2023-01-01T03:23:52.286Z,84.71
2023-01-01T03:24:52.317Z,84.71
2023-01-01T03:25:52.268Z,84.71
2023-01-01T03:26:52.280Z,84.71
2023-01-01T03:27:52.261Z,84.71
2023-01-01T03:28:52.270Z,84.71
2023-01-01T03:29:52.262Z,84.71
2023-01-01T03:30:52.296Z,84.71
2023-01-01T03:31:52.273Z,84.71
2023-01-01T03:32:52.290Z,84.71
2023-01-01T03:33:52.270Z,84.71
2023-01-01T03:34:52.279Z,84.71
2023-01-01T03:35:52.281Z,84.71
2023-01-01T03:36:52.274Z,84.71
2023-01-01T03:37:52.278Z,84.71
2023-01-01T03:38:52.290Z,84.71
2023-01-01T03:39:52.278Z,84.71
2023-01-01T03:40:52.336Z,84.71
2023-01-01T03:41:52.291Z,84.71
2023-01-01T03:42:52.288Z,84.71
2023-01-01T03:43:52.299Z,84.71
2023-01-01T03:44:52.297Z,84.71
2023-01-01T03:45:52.283Z,84.71
2023-01-01T03:46:52.326Z,84.71
2023-01-01T03:47:52.304Z,84.71
2023-01-01T03:48:55.786Z,84.71
2023-01-01T03:49:52.298Z,84.71
2023-01-01T03:50:52.284Z,84.71
2023-01-01T03:51:52.290Z,84.71
2023-01-01T03:52:52.279Z,84.71
2023-01-01T03:53:52.294Z,84.71
2023-01-01T03:54:56.837Z,84.71
2023-01-01T03:55:52.306Z,84.71
2023-01-01T03:56:52.334Z,84.71
2023-01-01T03:57:52.285Z,84.71
2023-01-01T03:58:52.305Z,84.71
2023-01-01T03:59:52.306Z,84.71
2023-01-01T04:00:52.312Z,84.71
2023-01-01T04:01:52.467Z,84.71
2023-01-01T04:02:52.330Z,84.71
2023-01-01T04:03:52.304Z,84.71
2023-01-01T04:04:52.317Z,84.71
2023-01-01T04:05:52.314Z,84.71
2023-01-01T04:06:52.313Z,84.71
2023-01-01T04:07:52.309Z,84.71
2023-01-01T04:08:52.303Z,84.71
2023-01-01T04:09:52.318Z,84.71
2023-01-01T04:10:52.310Z,84.71
2023-01-01T04:11:52.311Z,84.71
2023-01-01T04:12:52.335Z,84.71
2023-01-01T04:13:52.334Z,84.71
2023-01-01T04:14:52.318Z,84.71
2023-01-01T04:15:52.390Z,84.71
2023-01-01T04:16:52.327Z,84.71
2023-01-01T04:17:52.309Z,84.71
2023-01-01T04:18:52.328Z,84.71
2023-01-01T04:19:55.128Z,84.71
2023-01-01T04:20:52.319Z,84.71
2023-01-01T04:21:52.311Z,84.71
2023-01-01T04:22:52.327Z,84.71
2023-01-01T04:23:52.307Z,84.71
2023-01-01T04:24:52.330Z,84.71
2023-01-01T04:25:52.330Z,84.71
2023-01-01T04:26:52.323Z,84.71
2023-01-01T04:27:52.335Z,84.71
2023-01-01T04:28:52.365Z,84.71
2023-01-01T04:29:52.334Z,84.71
2023-01-01T04:31:52.340Z,84.71
2023-01-01T04:32:52.347Z,84.71
2023-01-01T04:33:52.329Z,84.71
2023-01-01T04:34:52.332Z,84.71
2023-01-01T04:35:52.339Z,84.71
2023-01-01T04:36:52.341Z,84.71
2023-01-01T04:37:52.340Z,84.71
2023-01-01T04:38:52.343Z,84.71
2023-01-01T04:39:52.337Z,84.71
2023-01-01T04:40:52.343Z,84.71
2023-01-01T04:41:52.339Z,84.71
2023-01-01T04:42:52.343Z,84.71
2023-01-01T04:43:52.356Z,84.71
2023-01-01T04:44:52.385Z,84.71
2023-01-01T04:45:52.384Z,84.71
2023-01-01T04:46:56.893Z,84.71
2023-01-01T04:47:52.343Z,84.71
2023-01-01T04:48:52.359Z,84.71
2023-01-01T04:49:52.361Z,84.71
2023-01-01T04:50:52.342Z,84.71
2023-01-01T04:51:52.357Z,84.71
2023-01-01T04:52:52.345Z,84.71
2023-01-01T04:53:52.356Z,84.71
2023-01-01T04:54:52.348Z,84.71
2023-01-01T04:55:52.357Z,84.71
2023-01-01T04:56:52.351Z,84.71
2023-01-01T04:57:52.350Z,84.71
2023-01-01T04:58:52.360Z,84.71
2023-01-01T04:59:52.350Z,84.71
2023-01-01T05:00:52.426Z,84.71
2023-01-01T05:01:52.514Z,84.71
2023-01-01T05:02:52.390Z,84.71
2023-01-01T05:03:52.349Z,84.71
2023-01-01T05:04:52.343Z,84.71
2023-01-01T05:05:52.363Z,84.71
2023-01-01T05:06:52.344Z,84.71
2023-01-01T05:07:52.359Z,84.71
2023-01-01T05:08:52.354Z,84.71
2023-01-01T05:09:52.355Z,84.71
2023-01-01T05:10:52.363Z,84.71
2023-01-01T05:11:52.367Z,84.71
2023-01-01T05:12:52.349Z,84.71
2023-01-01T05:13:52.364Z,84.71
2023-01-01T05:14:52.353Z,84.71
2023-01-01T05:15:52.357Z,84.71
2023-01-01T05:16:52.436Z,84.71
2023-01-01T05:17:52.363Z,84.71
2023-01-01T05:18:52.354Z,84.71
2023-01-01T05:19:52.381Z,84.71
2023-01-01T05:20:52.374Z,84.71
2023-01-01T05:21:52.375Z,84.71
2023-01-01T05:22:52.356Z,84.71
2023-01-01T05:23:52.373Z,84.71
2023-01-01T05:24:52.375Z,84.71
2023-01-01T05:25:52.373Z,84.71
2023-01-01T05:26:52.360Z,84.71
2023-01-01T05:27:52.378Z,84.71
2023-01-01T05:28:52.367Z,84.71
2023-01-01T05:29:52.382Z,84.71
2023-01-01T05:30:52.383Z,84.71
2023-01-01T05:31:52.374Z,84.71
2023-01-01T05:32:52.406Z,84.71
2023-01-01T05:33:52.362Z,84.71
2023-01-01T05:34:52.368Z,84.71
2023-01-01T05:35:52.373Z,84.71
2023-01-01T05:36:52.391Z,84.71
2023-01-01T05:37:52.378Z,84.71
2023-01-01T05:38:52.378Z,84.71
2023-01-01T05:39:52.395Z,84.71
2023-01-01T05:40:52.384Z,84.71
2023-01-01T05:41:52.386Z,84.71
2023-01-01T05:42:52.374Z,84.71
2023-01-01T05:43:52.396Z,84.71
2023-01-01T05:44:52.377Z,84.71
2023-01-01T05:45:52.421Z,84.71
2023-01-01T05:46:52.383Z,84.71
2023-01-01T05:47:52.380Z,84.71
2023-01-01T05:48:52.426Z,84.71
2023-01-01T05:49:52.390Z,84.71
2023-01-01T05:50:52.376Z,84.71
2023-01-01T05:51:52.413Z,84.71
2023-01-01T05:52:52.380Z,84.71
2023-01-01T05:53:52.388Z,84.71
2023-01-01T05:54:52.396Z,84.71
2023-01-01T05:55:52.390Z,84.71
2023-01-01T05:56:52.387Z,84.71
2023-01-01T05:57:52.385Z,84.71
2023-01-01T05:58:52.381Z,84.71
2023-01-01T05:59:52.390Z,84.71
2023-01-01T06:00:52.401Z,84.71
2023-01-01T06:01:52.579Z,84.71
2023-01-01T06:02:52.467Z,84.71
2023-01-01T06:03:52.395Z,84.71
2023-01-01T06:04:52.466Z,84.71
2023-01-01T06:05:52.404Z,84.71
2023-01-01T06:06:52.401Z,84.71
2023-01-01T06:07:52.396Z,84.71
2023-01-01T06:08:52.397Z,84.71
2023-01-01T06:09:52.405Z,84.71
2023-01-01T06:10:52.403Z,84.71
2023-01-01T06:11:52.407Z,84.71
2023-01-01T06:12:52.412Z,84.71
2023-01-01T06:13:52.418Z,84.71
2023-01-01T06:14:52.413Z,84.71
2023-01-01T06:15:52.400Z,84.71
2023-01-01T06:16:52.461Z,84.71
2023-01-01T06:17:52.407Z,84.71
2023-01-01T06:18:52.428Z,84.71
2023-01-01T06:19:52.402Z,84.71
2023-01-01T06:20:52.419Z,84.71
2023-01-01T06:21:52.402Z,84.71
2023-01-01T06:22:52.416Z,84.71
2023-01-01T06:23:52.412Z,84.71
2023-01-01T06:24:52.400Z,84.71
2023-01-01T06:25:52.419Z,84.71
2023-01-01T06:26:52.422Z,84.71
2023-01-01T06:27:52.407Z,84.71
2023-01-01T06:28:52.416Z,84.71
2023-01-01T06:29:52.405Z,84.71
2023-01-01T06:30:52.452Z,84.71
2023-01-01T06:31:52.418Z,84.71
2023-01-01T06:32:52.409Z,84.71
2023-01-01T06:33:52.424Z,84.71
2023-01-01T06:34:52.423Z,84.71
2023-01-01T06:35:52.447Z,84.71
2023-01-01T06:36:52.459Z,84.71
2023-01-01T06:37:52.421Z,84.71
2023-01-01T06:38:52.448Z,84.71
2023-01-01T06:39:52.421Z,84.71
2023-01-01T06:40:52.422Z,84.71
2023-01-01T06:41:52.422Z,84.71
2023-01-01T06:42:52.422Z,84.71
2023-01-01T06:43:52.414Z,84.71
2023-01-01T06:44:52.420Z,84.71
2023-01-01T06:45:52.440Z,84.71
2023-01-01T06:46:52.414Z,84.71
2023-01-01T06:47:52.420Z,84.71
2023-01-01T06:48:52.422Z,84.71
2023-01-01T06:49:52.425Z,84.71
2023-01-01T06:50:52.427Z,84.71
2023-01-01T06:51:52.429Z,84.71
2023-01-01T06:52:52.446Z,84.71
2023-01-01T06:53:52.435Z,84.71
2023-01-01T06:54:52.433Z,84.71
2023-01-01T06:55:57.037Z,84.71
2023-01-01T06:56:52.427Z,84.71
2023-01-01T06:57:52.430Z,84.71
2023-01-01T06:58:52.432Z,84.71
2023-01-01T06:59:52.435Z,84.71
2023-01-01T07:00:52.426Z,84.71
2023-01-01T07:01:52.525Z,84.71
2023-01-01T07:02:52.573Z,84.71
2023-01-01T07:03:52.430Z,84.71
2023-01-01T07:04:52.429Z,84.71
2023-01-01T07:05:52.434Z,84.71
2023-01-01T07:06:52.441Z,84.71
2023-01-01T07:07:52.422Z,84.71
2023-01-01T07:08:52.486Z,84.71
2023-01-01T07:09:52.430Z,84.71
2023-01-01T07:10:52.429Z,84.71
2023-01-01T07:11:52.448Z,84.71
2023-01-01T07:12:52.442Z,84.71
2023-01-01T07:13:52.432Z,84.71
2023-01-01T07:14:52.429Z,84.71
2023-01-01T07:15:52.453Z,84.71
2023-01-01T07:16:52.429Z,84.71
2023-01-01T07:17:52.435Z,84.71
2023-01-01T07:18:52.419Z,84.71
2023-01-01T07:19:52.446Z,84.71
2023-01-01T07:20:52.423Z,84.71
2023-01-01T07:21:52.445Z,84.71
2023-01-01T07:22:52.457Z,84.71
2023-01-01T07:23:52.448Z,84.71
2023-01-01T07:24:52.464Z,84.71
2023-01-01T07:25:52.441Z,84.71
2023-01-01T07:26:52.418Z,84.71
2023-01-01T07:27:52.445Z,84.71
2023-01-01T07:28:52.436Z,84.71
2023-01-01T07:29:52.450Z,84.71
2023-01-01T07:30:52.485Z,84.71
2023-01-01T07:31:52.447Z,84.71
2023-01-01T07:32:52.436Z,84.71
2023-01-01T07:33:52.437Z,84.71
2023-01-01T07:34:52.435Z,84.71
2023-01-01T07:35:52.426Z,84.71
2023-01-01T07:36:52.434Z,84.71
2023-01-01T07:37:52.445Z,84.71
2023-01-01T07:38:52.445Z,84.71
2023-01-01T07:39:52.440Z,84.71
2023-01-01T07:40:52.453Z,84.71
2023-01-01T07:41:52.438Z,84.71
2023-01-01T07:42:52.434Z,84.71
2023-01-01T07:43:52.444Z,84.71
2023-01-01T07:44:52.440Z,84.71
2023-01-01T07:45:52.472Z,84.71
2023-01-01T07:46:52.455Z,84.71
2023-01-01T07:47:52.443Z,84.71
2023-01-01T07:48:52.453Z,84.71
2023-01-01T07:49:52.470Z,84.71
2023-01-01T07:50:52.466Z,84.71
2023-01-01T07:51:52.469Z,84.71
2023-01-01T07:52:52.443Z,84.71
2023-01-01T07:53:52.478Z,84.71
2023-01-01T07:54:52.450Z,84.71
2023-01-01T07:55:52.435Z,84.71
2023-01-01T07:56:52.481Z,84.71
2023-01-01T07:57:52.445Z,84.71
2023-01-01T07:58:52.444Z,84.71
2023-01-01T07:59:52.450Z,84.71
2023-01-01T08:00:52.449Z,84.71
2023-01-01T08:01:52.516Z,84.71
2023-01-01T08:02:52.585Z,84.71
2023-01-01T08:03:52.452Z,84.71
2023-01-01T08:04:52.464Z,84.71
2023-01-01T08:05:52.448Z,84.71
2023-01-01T08:06:52.473Z,84.71
2023-01-01T08:07:52.467Z,84.71
2023-01-01T08:08:52.475Z,84.71
2023-01-01T08:09:52.471Z,84.71
2023-01-01T08:10:52.472Z,84.71
2023-01-01T08:11:52.449Z,84.71
2023-01-01T08:12:52.483Z,84.71
2023-01-01T08:13:52.468Z,84.71
2023-01-01T08:14:52.466Z,84.71
2023-01-01T08:15:52.491Z,84.71
2023-01-01T08:16:52.476Z,84.71
2023-01-01T08:17:52.464Z,84.71
2023-01-01T08:18:52.463Z,84.71
2023-01-01T08:19:52.467Z,84.71
2023-01-01T08:20:52.508Z,84.71
2023-01-01T08:21:52.479Z,84.71
2023-01-01T08:22:52.479Z,84.71
2023-01-01T08:23:52.463Z,84.71
2023-01-01T08:24:52.470Z,84.71
2023-01-01T08:25:52.469Z,84.71
2023-01-01T08:26:52.489Z,84.71
2023-01-01T08:27:52.476Z,84.71
2023-01-01T08:28:57.127Z,84.71
2023-01-01T08:29:52.481Z,84.71
2023-01-01T08:30:52.464Z,84.71
2023-01-01T08:31:52.467Z,84.71
2023-01-01T08:32:52.483Z,84.71
2023-01-01T08:33:52.491Z,84.71
2023-01-01T08:34:52.469Z,84.71
2023-01-01T08:35:54.448Z,84.71
2023-01-01T08:36:52.495Z,138.35
2023-01-01T08:37:52.465Z,125.65
2023-01-01T08:38:52.476Z,134.12
2023-01-01T08:39:52.501Z,146.82
2023-01-01T08:40:52.470Z,132.71
2023-01-01T08:41:52.481Z,110.12
2023-01-01T08:42:52.500Z,110.12
2023-01-01T08:43:52.455Z,110.12
2023-01-01T08:44:52.496Z,110.12
2023-01-01T08:45:52.469Z,144
2023-01-01T08:46:52.487Z,144
2023-01-01T08:47:52.476Z,144
2023-01-01T08:48:52.468Z,144
2023-01-01T08:49:52.466Z,144
2023-01-01T08:50:52.475Z,144
2023-01-01T08:51:52.488Z,144
2023-01-01T08:52:52.470Z,144
2023-01-01T08:53:52.476Z,144
2023-01-01T08:54:52.483Z,144
2023-01-01T08:55:52.470Z,144
2023-01-01T08:56:52.466Z,144
2023-01-01T08:57:52.497Z,144
2023-01-01T08:58:52.502Z,144
2023-01-01T08:59:52.478Z,144
2023-01-01T09:00:52.500Z,144
2023-01-01T09:01:52.641Z,144
2023-01-01T09:02:52.584Z,144
2023-01-01T09:03:52.493Z,144
2023-01-01T09:04:52.486Z,144
2023-01-01T09:05:52.504Z,144
2023-01-01T09:06:52.476Z,144
2023-01-01T09:07:52.474Z,144
2023-01-01T09:08:52.506Z,144
2023-01-01T09:09:52.478Z,144
2023-01-01T09:10:52.477Z,144
2023-01-01T09:11:52.478Z,144
2023-01-01T09:12:52.479Z,144
2023-01-01T09:13:52.494Z,144
2023-01-01T09:14:52.491Z,144
2023-01-01T09:15:52.509Z,144
2023-01-01T09:16:52.567Z,144
2023-01-01T09:17:52.483Z,144
2023-01-01T09:18:52.510Z,144
2023-01-01T09:19:52.495Z,144
2023-01-01T09:20:52.482Z,144
2023-01-01T09:21:52.497Z,144
2023-01-01T09:22:52.492Z,144
2023-01-01T09:23:52.493Z,144
2023-01-01T09:24:52.476Z,144
2023-01-01T09:25:52.530Z,144
2023-01-01T09:26:52.523Z,144
2023-01-01T09:27:52.501Z,144
2023-01-01T09:28:52.483Z,144
2023-01-01T09:29:52.485Z,144
2023-01-01T09:30:52.492Z,144
2023-01-01T09:31:52.555Z,144
2023-01-01T09:32:52.617Z,144
2023-01-01T09:33:52.497Z,144
2023-01-01T09:34:52.819Z,144
2023-01-01T09:35:52.482Z,144
2023-01-01T09:36:52.481Z,144
2023-01-01T09:37:52.487Z,144
2023-01-01T09:38:52.488Z,144
2023-01-01T09:39:52.500Z,144
2023-01-01T09:40:52.486Z,144
2023-01-01T09:41:52.500Z,144
2023-01-01T09:42:52.477Z,144
2023-01-01T09:43:52.489Z,144
2023-01-01T09:44:52.477Z,242.82
2023-01-01T09:45:52.521Z,242.82
2023-01-01T09:46:52.497Z,242.82
2023-01-01T09:47:52.483Z,242.82
2023-01-01T09:48:52.524Z,242.82
2023-01-01T09:49:52.498Z,242.82
2023-01-01T09:50:52.480Z,242.82
2023-01-01T09:51:57.617Z,242.82
2023-01-01T09:52:52.497Z,242.82
2023-01-01T09:53:52.504Z,242.82
2023-01-01T09:54:52.495Z,242.82
2023-01-01T09:55:52.489Z,242.82
2023-01-01T09:56:52.514Z,242.82
2023-01-01T09:57:52.503Z,242.82
2023-01-01T09:58:52.512Z,242.82
2023-01-01T09:59:52.492Z,242.82
2023-01-01T10:00:52.516Z,242.82
2023-01-01T10:01:52.574Z,242.82
2023-01-01T10:02:53.797Z,242.82
2023-01-01T10:03:52.554Z,242.82
2023-01-01T10:04:52.550Z,242.82
2023-01-01T10:05:52.515Z,242.82
2023-01-01T10:06:52.506Z,242.82
2023-01-01T10:07:52.516Z,242.82
2023-01-01T10:08:52.499Z,242.82
2023-01-01T10:09:52.536Z,242.82
2023-01-01T10:10:52.487Z,242.82
2023-01-01T10:11:52.500Z,242.82
2023-01-01T10:12:52.497Z,242.82
2023-01-01T10:13:52.502Z,242.82
2023-01-01T10:14:56.426Z,242.82
2023-01-01T10:15:52.500Z,242.82
2023-01-01T10:16:52.547Z,242.82
2023-01-01T10:17:52.507Z,242.82
2023-01-01T10:18:52.508Z,242.82
2023-01-01T10:19:52.486Z,242.82
2023-01-01T10:20:52.518Z,242.82
2023-01-01T10:21:52.515Z,242.82
2023-01-01T10:22:52.512Z,242.82
2023-01-01T10:23:52.511Z,242.82
2023-01-01T10:24:52.496Z,242.82
2023-01-01T10:25:52.568Z,242.82
2023-01-01T10:26:52.494Z,242.82
2023-01-01T10:27:57.237Z,242.82
2023-01-01T10:28:52.495Z,242.82
2023-01-01T10:29:54.537Z,242.82
2023-01-01T10:30:52.532Z,242.82
2023-01-01T10:31:52.497Z,204.71
2023-01-01T10:32:52.504Z,189.18
2023-01-01T10:33:52.498Z,176.47
2023-01-01T10:34:52.497Z,176.47
2023-01-01T10:35:52.497Z,176.47
2023-01-01T10:36:52.527Z,148.24
2023-01-01T10:37:52.508Z,176.47
2023-01-01T10:38:52.502Z,176.47
2023-01-01T10:39:52.522Z,176.47
2023-01-01T10:40:52.506Z,176.47
2023-01-01T10:41:52.502Z,176.47
2023-01-01T10:42:52.507Z,176.47
2023-01-01T10:43:52.524Z,176.47
2023-01-01T10:44:52.511Z,176.47
2023-01-01T10:45:52.535Z,176.47
2023-01-01T10:46:52.498Z,176.47
2023-01-01T10:47:52.514Z,176.47
2023-01-01T10:48:52.499Z,176.47
2023-01-01T10:49:52.503Z,176.47
2023-01-01T10:50:52.529Z,176.47
2023-01-01T10:51:52.518Z,159.53
2023-01-01T10:52:52.581Z,199.06
2023-01-01T10:53:52.499Z,203.29
2023-01-01T10:54:52.543Z,177.88
2023-01-01T10:55:52.507Z,173.65
2023-01-01T10:56:52.524Z,158.12
2023-01-01T10:57:52.531Z,196.24
2023-01-01T10:58:52.515Z,166.59
2023-01-01T10:59:54.521Z,131.29
2023-01-01T11:00:52.516Z,131.29
2023-01-01T11:01:52.591Z,131.29
2023-01-01T11:02:52.513Z,131.29
2023-01-01T11:03:52.515Z,131.29
2023-01-01T11:04:52.517Z,131.29
2023-01-01T11:05:52.529Z,131.29
2023-01-01T11:06:52.523Z,131.29
2023-01-01T11:07:52.520Z,131.29
2023-01-01T11:08:52.540Z,131.29
2023-01-01T11:10:02.900Z,131.29
2023-01-01T11:10:52.531Z,131.29
2023-01-01T11:11:52.503Z,107.29
2023-01-01T11:13:07.837Z,107.29
2023-01-01T11:13:52.519Z,107.29
2023-01-01T11:14:52.527Z,107.29
2023-01-01T11:15:52.503Z,107.29
2023-01-01T11:16:52.544Z,107.29
2023-01-01T11:17:52.537Z,107.29
2023-01-01T11:18:52.515Z,107.29
2023-01-01T11:19:55.572Z,107.29
2023-01-01T11:20:52.503Z,107.29
2023-01-01T11:21:52.528Z,107.29
2023-01-01T11:22:52.548Z,107.29
2023-01-01T11:23:52.534Z,107.29
2023-01-01T11:24:52.623Z,107.29
2023-01-01T11:25:52.514Z,107.29
2023-01-01T11:26:55.047Z,107.29
2023-01-01T11:27:52.531Z,107.29
2023-01-01T11:28:52.520Z,107.29
2023-01-01T11:29:52.520Z,107.29
2023-01-01T11:30:52.521Z,107.29
2023-01-01T11:31:52.525Z,107.29
2023-01-01T11:32:55.570Z,107.29
2023-01-01T11:33:52.519Z,107.29
2023-01-01T11:34:52.544Z,107.29
2023-01-01T11:35:52.552Z,107.29
2023-01-01T11:36:52.517Z,107.29
2023-01-01T11:37:52.534Z,107.29
2023-01-01T11:38:52.528Z,107.29
2023-01-01T11:39:52.526Z,107.29
2023-01-01T11:40:52.538Z,107.29
2023-01-01T11:41:52.523Z,107.29
2023-01-01T11:42:58.171Z,107.29
2023-01-01T11:43:52.536Z,107.29
2023-01-01T11:44:52.525Z,107.29
2023-01-01T11:45:52.569Z,107.29
2023-01-01T11:46:52.523Z,107.29
2023-01-01T11:47:52.531Z,107.29
2023-01-01T11:48:52.522Z,107.29
2023-01-01T11:49:52.542Z,107.29
2023-01-01T11:50:54.099Z,107.29
2023-01-01T11:51:52.548Z,107.29
2023-01-01T11:52:52.518Z,107.29
2023-01-01T11:53:52.544Z,107.29
2023-01-01T11:54:52.511Z,107.29
2023-01-01T11:55:52.530Z,107.29
2023-01-01T11:56:52.640Z,107.29
2023-01-01T11:57:52.531Z,107.29
2023-01-01T11:58:52.523Z,107.29
2023-01-01T11:59:52.533Z,107.29
2023-01-01T12:00:52.523Z,107.29
2023-01-01T12:01:52.524Z,107.29
2023-01-01T12:02:52.561Z,107.29
2023-01-01T12:03:52.550Z,107.29
2023-01-01T12:04:52.522Z,107.29
2023-01-01T12:05:52.535Z,107.29
2023-01-01T12:06:52.561Z,107.29
2023-01-01T12:07:52.536Z,107.29
2023-01-01T12:08:52.539Z,107.29
2023-01-01T12:09:52.544Z,107.29
2023-01-01T12:10:52.551Z,107.29
2023-01-01T12:11:52.555Z,107.29
2023-01-01T12:12:52.664Z,107.29
2023-01-01T12:13:52.557Z,107.29
2023-01-01T12:14:52.558Z,107.29
2023-01-01T12:15:52.583Z,107.29
2023-01-01T12:16:52.550Z,107.29
2023-01-01T12:17:52.553Z,107.29
2023-01-01T12:18:52.563Z,107.29
2023-01-01T12:19:52.551Z,107.29
2023-01-01T12:20:52.558Z,107.29
2023-01-01T12:21:52.968Z,107.29
2023-01-01T12:22:52.576Z,107.29
2023-01-01T12:23:52.546Z,107.29
2023-01-01T12:24:52.577Z,107.29
2023-01-01T12:25:52.567Z,107.29
2023-01-01T12:26:52.563Z,107.29
2023-01-01T12:27:52.564Z,107.29
2023-01-01T12:28:52.587Z,107.29
2023-01-01T12:29:52.559Z,107.29
2023-01-01T12:30:52.651Z,107.29
2023-01-01T12:31:52.574Z,107.29
2023-01-01T12:32:52.570Z,107.29
2023-01-01T12:33:52.562Z,107.29
2023-01-01T12:34:52.568Z,107.29
2023-01-01T12:35:52.584Z,107.29
2023-01-01T12:36:52.587Z,107.29
2023-01-01T12:37:52.585Z,107.29
2023-01-01T12:38:52.579Z,107.29
2023-01-01T12:39:52.580Z,107.29
2023-01-01T12:40:52.573Z,107.29
2023-01-01T12:41:52.579Z,107.29
2023-01-01T12:42:52.604Z,107.29
2023-01-01T12:43:52.586Z,107.29
2023-01-01T12:44:52.620Z,107.29
2023-01-01T12:45:52.607Z,192
2023-01-01T12:46:52.597Z,192
2023-01-01T12:47:52.590Z,192
2023-01-01T12:48:52.584Z,192
2023-01-01T12:49:52.594Z,192
2023-01-01T12:50:56.139Z,192
2023-01-01T12:51:52.600Z,192